Terminal Aerodrome Forecast
Issued by NWS Binghamton, NY

Home | Current Version | Previous Version | Text Only | Print | Product List | Glossary On
Versions: 1 2 3 4 5 6 7 8 9 10 11 12 13 14 15 16 17 18 19
000
FTUS41 KBGM 192329
TAFAVP
TAF
KAVP 192329Z 2000/2024 24006KT P6SM -RA OVC015 WS020/21040KT
     FM200300 20004KT 4SM BR OVC015 WS020/24035KT
     FM200800 21004KT 5SM BR BKN025 WS020/25035KT
     FM201400 23008KT P6SM OVC035=

USA.gov is the U.S. government's official web portal to all federal, state and local government web resources and services.